Time;durP1;ratioP1;P1;durP2;ratioP2;P2;SDS_P1;SDS_P2;PMS_P1;PMS_P2;Temp;Humidity;BMP_temperature;BMP_pressure;BME280_temperature;BME280_humidity;BME280_pressure;Samples;Min_cycle;Max_cycle;Signal;HPM_P1;HPM_P2
2021/12/28 00:01:12;;;;;;;;;;;;;;;;;;5115478;28;20372;-84
2021/12/28 00:03:40;;;;;;;;;;;;;;;;;;5115450;28;20043;-84
2021/12/28 00:06:07;;;;;;;;;;;;;;;;;;5113979;28;19996;-84
2021/12/28 00:08:34;;;;;;;;;;;;;;;;;;5114111;28;20020;-84
2021/12/28 00:11:01;;;;;;;;;;;;;;;;;;5114798;28;19964;-84
2021/12/28 00:13:29;;;;;;;;;;;;;;;;;;5114332;28;20527;-84
2021/12/28 00:18:37;;;;;;;;;;;;;;;;;;5101341;28;19965;-84
2021/12/28 00:21:04;;;;;;;;;;;;;;;;;;5114922;28;20055;-83
2021/12/28 00:23:36;;;;;;;;;;;;;;;;;;5115019;28;20045;-84
2021/12/28 00:26:03;;;;;;;;;;;;;;;;;;5115268;28;20033;-84
2021/12/28 00:28:30;;;;;;;;;;;;;;;;;;5114950;28;20072;-84
2021/12/28 00:30:57;;;;;;;;;;;;;;;;;;5115115;28;20387;-84
2021/12/28 00:33:24;;;;;;;;;;;;;;;;;;5115177;28;20042;-84
2021/12/28 00:35:51;;;;;;;;;;;;;;;;;;5115054;28;19997;-83
2021/12/28 00:38:19;;;;;;;;;;;;;;;;;;5114825;28;20051;-84
2021/12/28 00:40:46;;;;;;;;;;;;;;;;;;5114888;28;19960;-84
2021/12/28 00:43:13;;;;;;;;;;;;;;;;;;5114821;28;20036;-83
2021/12/28 00:45:40;;;;;;;;;;;;;;;;;;5114772;28;19997;-84
2021/12/28 00:48:07;;;;;;;;;;;;;;;;;;5114673;28;20044;-84
2021/12/28 00:50:34;;;;;;;;;;;;;;;;;;5114825;28;20008;-84
2021/12/28 00:53:01;;;;;;;;;;;;;;;;;;5114735;28;20024;-84
2021/12/28 00:55:28;;;;;;;;;;;;;;;;;;5114624;28;19996;-84
2021/12/28 00:57:55;;;;;;;;;;;;;;;;;;5114432;28;20472;-83
2021/12/28 01:00:22;;;;;;;;;;;;;;;;;;5114704;28;19993;-84
2021/12/28 01:02:49;;;;;;;;;;;;;;;;;;5114660;28;20046;-83
2021/12/28 01:05:16;;;;;;;;;;;;;;;;;;5114450;28;20422;-84
2021/12/28 01:07:43;;;;;;;;;;;;;;;;;;5114490;28;19988;-84
2021/12/28 01:10:10;;;;;;;;;;;;;;;;;;5114192;28;20066;-83
2021/12/28 01:12:37;;;;;;;;;;;;;;;;;;5111971;28;20073;-84
2021/12/28 01:15:06;;;;;;;;;;;;;;;;;;5114489;28;20044;-84
2021/12/28 01:17:33;;;;;;;;;;;;;;;;;;5114589;28;19951;-84
2021/12/28 01:20:00;;;;;;;;;;;;;;;;;;5114235;28;20448;-83
2021/12/28 01:22:27;;;;;;;;;;;;;;;;;;5114208;28;20030;-85
2021/12/28 01:24:54;;;;;;;;;;;;;;;;;;5113424;28;20001;-84
2021/12/28 01:27:21;;;;;;;;;;;;;;;;;;5114053;28;20005;-84
2021/12/28 01:29:48;;;;;;;;;;;;;;;;;;5114194;28;19993;-83
2021/12/28 01:32:15;;;;;;;;;;;;;;;;;;5114075;28;20013;-83
2021/12/28 01:34:43;;;;;;;;;;;;;;;;;;5114108;28;20463;-84
2021/12/28 01:37:10;;;;;;;;;;;;;;;;;;5114036;28;19955;-84
2021/12/28 01:39:37;;;;;;;;;;;;;;;;;;5113951;28;20005;-83
2021/12/28 01:42:05;;;;;;;;;;;;;;;;;;5114173;28;20066;-84
2021/12/28 01:44:32;;;;;;;;;;;;;;;;;;5114108;28;20467;-84
2021/12/28 01:47:00;;;;;;;;;;;;;;;;;;5114091;28;19987;-83
2021/12/28 01:49:27;;;;;;;;;;;;;;;;;;5113993;28;19972;-84
2021/12/28 01:51:54;;;;;;;;;;;;;;;;;;5113956;28;20467;-83
2021/12/28 01:54:21;;;;;;;;;;;;;;;;;;5114033;28;20022;-84
2021/12/28 01:56:48;;;;;;;;;;;;;;;;;;5113931;28;20003;-84
2021/12/28 01:59:14;;;;;;;;;;;;;;;;;;5113840;28;20007;-84
2021/12/28 02:01:41;;;;;;;;;;;;;;;;;;5113870;28;20478;-84
2021/12/28 02:04:08;;;;;;;;;;;;;;;;;;5113702;28;20005;-84
2021/12/28 02:06:35;;;;;;;;;;;;;;;;;;5113782;28;20039;-84
2021/12/28 02:09:03;;;;;;;;;;;;;;;;;;5113644;28;20031;-84
2021/12/28 02:11:30;;;;;;;;;;;;;;;;;;5113869;28;19963;-83
2021/12/28 02:13:57;;;;;;;;;;;;;;;;;;5113548;28;20491;-84
2021/12/28 02:16:24;;;;;;;;;;;;;;;;;;5113657;28;19999;-83
2021/12/28 02:18:51;;;;;;;;;;;;;;;;;;5113684;28;19987;-84
2021/12/28 02:21:18;;;;;;;;;;;;;;;;;;5113715;28;20046;-84
2021/12/28 02:23:45;;;;;;;;;;;;;;;;;;5113770;28;19956;-83
2021/12/28 02:26:12;;;;;;;;;;;;;;;;;;5113488;28;20062;-83
2021/12/28 02:28:39;;;;;;;;;;;;;;;;;;5113422;28;20458;-83
2021/12/28 02:31:06;;;;;;;;;;;;;;;;;;5113586;28;20039;-84
2021/12/28 02:33:32;;;;;;;;;;;;;;;;;;5113463;28;19999;-84
2021/12/28 02:35:59;;;;;;;;;;;;;;;;;;5114697;28;19996;-84
2021/12/28 02:38:27;;;;;;;;;;;;;;;;;;5117550;28;19942;-83
2021/12/28 02:40:54;;;;;;;;;;;;;;;;;;5117249;28;20391;-84
2021/12/28 02:43:21;;;;;;;;;;;;;;;;;;5117179;28;19947;-83
2021/12/28 02:45:48;;;;;;;;;;;;;;;;;;5117129;28;20431;-84
2021/12/28 02:48:15;;;;;;;;;;;;;;;;;;5117124;28;19952;-83
2021/12/28 02:50:43;;;;;;;;;;;;;;;;;;5117177;28;20075;-83
2021/12/28 02:53:10;;;;;;;;;;;;;;;;;;5117132;28;20032;-84
2021/12/28 02:55:37;;;;;;;;;;;;;;;;;;5117061;28;20056;-83
2021/12/28 02:58:04;;;;;;;;;;;;;;;;;;5116934;28;20055;-84
2021/12/28 03:00:31;;;;;;;;;;;;;;;;;;5116842;28;20391;-84
2021/12/28 03:02:58;;;;;;;;;;;;;;;;;;5117142;28;19999;-83
2021/12/28 03:05:25;;;;;;;;;;;;;;;;;;5117027;28;20006;-84
2021/12/28 03:07:52;;;;;;;;;;;;;;;;;;5116679;28;20053;-84
2021/12/28 03:10:19;;;;;;;;;;;;;;;;;;5116600;28;20035;-84
2021/12/28 03:12:46;;;;;;;;;;;;;;;;;;5116522;28;19982;-84
2021/12/28 03:15:13;;;;;;;;;;;;;;;;;;5116543;28;19992;-84
2021/12/28 03:17:40;;;;;;;;;;;;;;;;;;5116884;28;19959;-85
2021/12/28 03:20:07;;;;;;;;;;;;;;;;;;5116652;28;19991;-84
2021/12/28 03:22:34;;;;;;;;;;;;;;;;;;5116536;28;20459;-83
2021/12/28 03:25:01;;;;;;;;;;;;;;;;;;5116476;28;20000;-83
2021/12/28 03:27:28;;;;;;;;;;;;;;;;;;5116465;28;20396;-84
2021/12/28 03:29:55;;;;;;;;;;;;;;;;;;5116219;28;19982;-84
2021/12/28 03:32:22;;;;;;;;;;;;;;;;;;5116440;28;20058;-84
2021/12/28 03:34:49;;;;;;;;;;;;;;;;;;5115583;28;20495;-84
2021/12/28 03:37:16;;;;;;;;;;;;;;;;;;5116180;28;19987;-83
2021/12/28 03:39:43;;;;;;;;;;;;;;;;;;5116118;28;20040;-83
2021/12/28 03:42:10;;;;;;;;;;;;;;;;;;5115992;28;19995;-84
2021/12/28 03:44:37;;;;;;;;;;;;;;;;;;5116163;28;20376;-84
2021/12/28 03:47:04;;;;;;;;;;;;;;;;;;5115560;28;20001;-83
2021/12/28 03:49:31;;;;;;;;;;;;;;;;;;5115682;28;20059;-84
2021/12/28 03:51:58;;;;;;;;;;;;;;;;;;5116099;28;20035;-84
2021/12/28 03:54:25;;;;;;;;;;;;;;;;;;5115907;28;20379;-84
2021/12/28 03:56:53;;;;;;;;;;;;;;;;;;5115731;28;20080;-84
2021/12/28 03:59:20;;;;;;;;;;;;;;;;;;5115894;28;19958;-84
2021/12/28 04:01:47;;;;;;;;;;;;;;;;;;5115717;28;20038;-83
2021/12/28 04:04:14;;;;;;;;;;;;;;;;;;5115722;28;20004;-83
2021/12/28 04:06:41;;;;;;;;;;;;;;;;;;5115561;28;20056;-83
2021/12/28 04:09:11;;;;;;;;;;;;;;;;;;5115412;28;19995;-83
2021/12/28 04:11:38;;;;;;;;;;;;;;;;;;5115671;28;19962;-84
2021/12/28 04:14:05;;;;;;;;;;;;;;;;;;5115261;28;20013;-84
2021/12/28 04:16:32;;;;;;;;;;;;;;;;;;5115642;28;20348;-84
2021/12/28 04:18:59;;;;;;;;;;;;;;;;;;5115406;28;20047;-84
2021/12/28 04:21:26;;;;;;;;;;;;;;;;;;5115313;28;20044;-84
2021/12/28 04:23:53;;;;;;;;;;;;;;;;;;5115235;28;20404;-84
2021/12/28 04:26:20;;;;;;;;;;;;;;;;;;5115216;28;19984;-84
2021/12/28 04:28:47;;;;;;;;;;;;;;;;;;5115298;28;20040;-84
2021/12/28 04:31:14;;;;;;;;;;;;;;;;;;5115120;28;20069;-84
2021/12/28 04:33:41;;;;;;;;;;;;;;;;;;5115078;28;20298;-84
2021/12/28 04:36:08;;;;;;;;;;;;;;;;;;5115030;28;19959;-84
2021/12/28 04:38:35;;;;;;;;;;;;;;;;;;5114965;28;20008;-84
2021/12/28 04:41:02;;;;;;;;;;;;;;;;;;5115110;28;19954;-84
2021/12/28 04:43:29;;;;;;;;;;;;;;;;;;5115036;28;20047;-85
2021/12/28 04:45:56;;;;;;;;;;;;;;;;;;5114803;28;19979;-85
2021/12/28 04:48:23;;;;;;;;;;;;;;;;;;5114837;28;19993;-85
2021/12/28 04:50:50;;;;;;;;;;;;;;;;;;5114650;28;19962;-86
2021/12/28 04:53:17;;;;;;;;;;;;;;;;;;5114730;28;20370;-85
2021/12/28 04:55:44;;;;;;;;;;;;;;;;;;5115077;28;20043;-86
2021/12/28 04:58:11;;;;;;;;;;;;;;;;;;5114594;28;20056;-86
2021/12/28 05:00:38;;;;;;;;;;;;;;;;;;5114894;28;20042;-85
2021/12/28 05:03:05;;;;;;;;;;;;;;;;;;5114547;28;20044;-85
2021/12/28 05:05:32;;;;;;;;;;;;;;;;;;5114496;28;19961;-85
2021/12/28 05:07:59;;;;;;;;;;;;;;;;;;5114499;28;20405;-84
2021/12/28 05:10:26;;;;;;;;;;;;;;;;;;5114995;28;20019;-86
2021/12/28 05:12:53;;;;;;;;;;;;;;;;;;5114806;28;20077;-84
2021/12/28 05:15:20;;;;;;;;;;;;;;;;;;5114652;28;19995;-85
2021/12/28 05:17:47;;;;;;;;;;;;;;;;;;5114364;28;20012;-84
2021/12/28 05:20:14;;;;;;;;;;;;;;;;;;5114219;28;20006;-84
2021/12/28 05:22:41;;;;;;;;;;;;;;;;;;5114395;28;19994;-85
2021/12/28 05:25:08;;;;;;;;;;;;;;;;;;5114327;28;20016;-85
2021/12/28 05:27:35;;;;;;;;;;;;;;;;;;5114195;28;20042;-85
2021/12/28 05:30:02;;;;;;;;;;;;;;;;;;5114111;28;20014;-85
2021/12/28 05:32:29;;;;;;;;;;;;;;;;;;5114139;28;20005;-86
2021/12/28 05:34:56;;;;;;;;;;;;;;;;;;5114216;28;20021;-85
2021/12/28 05:37:23;;;;;;;;;;;;;;;;;;5113961;28;19968;-85
2021/12/28 05:39:50;;;;;;;;;;;;;;;;;;5114079;28;19951;-85
2021/12/28 05:42:17;;;;;;;;;;;;;;;;;;5114097;28;20039;-85
2021/12/28 05:44:44;;;;;;;;;;;;;;;;;;5113958;28;19982;-85
2021/12/28 05:47:11;;;;;;;;;;;;;;;;;;5113828;28;20398;-85
2021/12/28 05:49:39;;;;;;;;;;;;;;;;;;5114037;28;19969;-85
2021/12/28 05:52:06;;;;;;;;;;;;;;;;;;5114249;28;20002;-85
2021/12/28 05:54:33;;;;;;;;;;;;;;;;;;5114061;28;20046;-85
2021/12/28 05:57:00;;;;;;;;;;;;;;;;;;5113957;28;19967;-85
2021/12/28 05:59:27;;;;;;;;;;;;;;;;;;5114110;28;20373;-85
2021/12/28 06:01:54;;;;;;;;;;;;;;;;;;5113900;28;20009;-86
2021/12/28 06:04:21;;;;;;;;;;;;;;;;;;5114047;28;20386;-85
2021/12/28 06:06:47;;;;;;;;;;;;;;;;;;5114117;28;19958;-85
2021/12/28 06:09:15;;;;;;;;;;;;;;;;;;5114141;28;19997;-86
2021/12/28 06:11:42;;;;;;;;;;;;;;;;;;5116179;28;20027;-86
2021/12/28 06:14:09;;;;;;;;;;;;;;;;;;5117522;28;20023;-86
2021/12/28 06:16:36;;;;;;;;;;;;;;;;;;5118000;28;19996;-86
2021/12/28 06:19:03;;;;;;;;;;;;;;;;;;5118520;28;20357;-83
2021/12/28 06:21:31;;;;;;;;;;;;;;;;;;5118035;28;20049;-84
2021/12/28 06:23:59;;;;;;;;;;;;;;;;;;5117626;28;19956;-83
2021/12/28 06:26:26;;;;;;;;;;;;;;;;;;5117647;28;19993;-84
2021/12/28 06:28:53;;;;;;;;;;;;;;;;;;5117450;28;20062;-84
2021/12/28 06:31:20;;;;;;;;;;;;;;;;;;5117619;28;20020;-84
2021/12/28 06:33:47;;;;;;;;;;;;;;;;;;5117543;28;20042;-83
2021/12/28 06:36:14;;;;;;;;;;;;;;;;;;5117651;28;20064;-82
2021/12/28 06:38:41;;;;;;;;;;;;;;;;;;5117718;28;20010;-85
2021/12/28 06:41:08;;;;;;;;;;;;;;;;;;5117364;28;20385;-84
2021/12/28 06:43:35;;;;;;;;;;;;;;;;;;5117163;28;20332;-84
2021/12/28 06:46:02;;;;;;;;;;;;;;;;;;5117426;28;20013;-84
2021/12/28 06:48:32;;;;;;;;;;;;;;;;;;5117410;28;20048;-84
2021/12/28 06:50:59;;;;;;;;;;;;;;;;;;5117138;28;20053;-83
2021/12/28 06:53:26;;;;;;;;;;;;;;;;;;5117159;28;20062;-84
2021/12/28 06:55:53;;;;;;;;;;;;;;;;;;5117210;28;20476;-84
2021/12/28 06:58:20;;;;;;;;;;;;;;;;;;5117023;28;20382;-84
2021/12/28 07:00:47;;;;;;;;;;;;;;;;;;5117058;28;19960;-84
2021/12/28 07:03:14;;;;;;;;;;;;;;;;;;5116816;28;20487;-84
2021/12/28 07:05:41;;;;;;;;;;;;;;;;;;5116983;28;20009;-83
2021/12/28 07:08:08;;;;;;;;;;;;;;;;;;5116724;28;20051;-83
2021/12/28 07:10:35;;;;;;;;;;;;;;;;;;5116675;28;20493;-84
2021/12/28 07:13:02;;;;;;;;;;;;;;;;;;5116485;28;20022;-82
2021/12/28 07:15:29;;;;;;;;;;;;;;;;;;5116847;28;20049;-83
2021/12/28 07:17:57;;;;;;;;;;;;;;;;;;5116674;28;20057;-84
2021/12/28 07:20:24;;;;;;;;;;;;;;;;;;5116592;28;19953;-84
2021/12/28 07:22:51;;;;;;;;;;;;;;;;;;5115325;28;20050;-84
2021/12/28 07:25:18;;;;;;;;;;;;;;;;;;5116431;28;20428;-83
2021/12/28 07:27:45;;;;;;;;;;;;;;;;;;5116332;28;20035;-83
2021/12/28 07:30:12;;;;;;;;;;;;;;;;;;5116413;28;20031;-84
2021/12/28 07:32:39;;;;;;;;;;;;;;;;;;5116385;28;20013;-84
2021/12/28 07:35:06;;;;;;;;;;;;;;;;;;5116837;28;20004;-83
2021/12/28 07:37:33;;;;;;;;;;;;;;;;;;5116251;28;20005;-83
2021/12/28 07:40:00;;;;;;;;;;;;;;;;;;5116416;28;20059;-84
2021/12/28 07:42:27;;;;;;;;;;;;;;;;;;5116383;28;20058;-83
2021/12/28 07:44:54;;;;;;;;;;;;;;;;;;5115912;28;20006;-84
2021/12/28 07:47:21;;;;;;;;;;;;;;;;;;5116136;28;19984;-84
2021/12/28 07:49:48;;;;;;;;;;;;;;;;;;5115947;28;20006;-84
2021/12/28 07:52:15;;;;;;;;;;;;;;;;;;5115790;28;19977;-85
2021/12/28 07:54:42;;;;;;;;;;;;;;;;;;5115229;28;20343;-84
2021/12/28 07:57:09;;;;;;;;;;;;;;;;;;5112840;27;20339;-84
2021/12/28 07:59:36;;;;;;;;;;;;;;;;;;5115712;28;19983;-86
2021/12/28 08:02:03;;;;;;;;;;;;;;;;;;5114791;28;20038;-85
2021/12/28 08:04:30;;;;;;;;;;;;;;;;;;5114081;28;19962;-85
2021/12/28 08:06:57;;;;;;;;;;;;;;;;;;5114766;28;20284;-84
2021/12/28 08:09:24;;;;;;;;;;;;;;;;;;5115277;28;19997;-84
2021/12/28 08:11:51;;;;;;;;;;;;;;;;;;5115467;28;20049;-85
2021/12/28 08:14:18;;;;;;;;;;;;;;;;;;5115121;28;20098;-85
2021/12/28 08:16:45;;;;;;;;;;;;;;;;;;5114939;28;19927;-85
2021/12/28 08:19:12;;;;;;;;;;;;;;;;;;5114930;28;20029;-85
2021/12/28 08:21:39;;;;;;;;;;;;;;;;;;5115091;28;20339;-85
2021/12/28 08:24:06;;;;;;;;;;;;;;;;;;5114970;28;19985;-85
2021/12/28 08:26:33;;;;;;;;;;;;;;;;;;5129296;27;19937;-85
2021/12/28 08:29:00;;;;;;;;;;;;;;;;;;5114733;28;20454;-86
2021/12/28 08:31:27;;;;;;;;;;;;;;;;;;5114386;28;20006;-85
2021/12/28 08:33:54;;;;;;;;;;;;;;;;;;5114658;28;20387;-86
2021/12/28 08:36:21;;;;;;;;;;;;;;;;;;5114487;28;19992;-85
2021/12/28 08:38:48;;;;;;;;;;;;;;;;;;5114815;28;19987;-85
2021/12/28 08:41:16;;;;;;;;;;;;;;;;;;5114849;28;19954;-85
2021/12/28 08:43:43;;;;;;;;;;;;;;;;;;5115051;28;19953;-85
2021/12/28 08:46:10;;;;;;;;;;;;;;;;;;5114539;28;20053;-87
2021/12/28 08:48:37;;;;;;;;;;;;;;;;;;5115048;28;20001;-85
2021/12/28 08:51:04;;;;;;;;;;;;;;;;;;5114608;28;20080;-85
2021/12/28 08:53:31;;;;;;;;;;;;;;;;;;5114921;28;20147;-85
2021/12/28 08:55:58;;;;;;;;;;;;;;;;;;5114993;28;20053;-86
2021/12/28 08:58:25;;;;;;;;;;;;;;;;;;5114627;28;20058;-85
2021/12/28 09:00:52;;;;;;;;;;;;;;;;;;5114655;28;20056;-86
2021/12/28 09:03:19;;;;;;;;;;;;;;;;;;5114592;28;20058;-86
2021/12/28 09:05:46;;;;;;;;;;;;;;;;;;5114421;28;20056;-85
2021/12/28 09:08:16;;;;;;;;;;;;;;;;;;5114782;28;20044;-86
2021/12/28 09:10:43;;;;;;;;;;;;;;;;;;5114466;28;20065;-87
2021/12/28 09:13:11;;;;;;;;;;;;;;;;;;5114216;28;20024;-85
2021/12/28 09:15:38;;;;;;;;;;;;;;;;;;5114174;28;19996;-86
2021/12/28 09:18:05;;;;;;;;;;;;;;;;;;5113639;28;20047;-85
2021/12/28 09:20:32;;;;;;;;;;;;;;;;;;5114440;28;20407;-86
2021/12/28 09:22:59;;;;;;;;;;;;;;;;;;5114175;28;19984;-86
2021/12/28 09:25:26;;;;;;;;;;;;;;;;;;5114800;28;20056;-86
2021/12/28 09:28:01;;;;;;;;;;;;;;;;;;5114363;28;20450;-86
2021/12/28 09:30:30;;;;;;;;;;;;;;;;;;5115180;28;19957;-90
2021/12/28 09:32:58;;;;;;;;;;;;;;;;;;5115570;28;19966;-86
2021/12/28 09:35:25;;;;;;;;;;;;;;;;;;5114898;28;19957;-86
2021/12/28 09:37:52;;;;;;;;;;;;;;;;;;5114137;28;19962;-85
2021/12/28 09:40:19;;;;;;;;;;;;;;;;;;5114222;28;20042;-87
2021/12/28 09:42:46;;;;;;;;;;;;;;;;;;5114704;28;19973;-87
2021/12/28 09:45:13;;;;;;;;;;;;;;;;;;5115491;28;19949;-85
2021/12/28 09:47:41;;;;;;;;;;;;;;;;;;5114900;28;19994;-86
2021/12/28 09:50:08;;;;;;;;;;;;;;;;;;5114575;28;19954;-85
2021/12/28 09:52:35;;;;;;;;;;;;;;;;;;5113829;28;19979;-91
2021/12/28 09:55:02;;;;;;;;;;;;;;;;;;5113874;28;20012;-88
2021/12/28 09:57:29;;;;;;;;;;;;;;;;;;5113048;28;19981;-86
2021/12/28 09:59:56;;;;;;;;;;;;;;;;;;5112613;28;20057;-86
2021/12/28 10:02:24;;;;;;;;;;;;;;;;;;5122859;28;20440;-88
2021/12/28 10:04:51;;;;;;;;;;;;;;;;;;5113100;28;19960;-85
2021/12/28 10:07:18;;;;;;;;;;;;;;;;;;5112921;28;20377;-86
2021/12/28 10:09:46;;;;;;;;;;;;;;;;;;5115244;28;20042;-88
2021/12/28 10:12:13;;;;;;;;;;;;;;;;;;5113903;28;19975;-86
2021/12/28 10:14:40;;;;;;;;;;;;;;;;;;5113926;28;19970;-86
2021/12/28 10:17:07;;;;;;;;;;;;;;;;;;5113711;28;20067;-87
2021/12/28 10:19:34;;;;;;;;;;;;;;;;;;5114484;28;19962;-87
2021/12/28 10:22:01;;;;;;;;;;;;;;;;;;5114239;28;19956;-86
2021/12/28 10:24:28;;;;;;;;;;;;;;;;;;5114311;28;20460;-87
2021/12/28 10:26:56;;;;;;;;;;;;;;;;;;5113485;28;19972;-86
2021/12/28 10:29:23;;;;;;;;;;;;;;;;;;5113619;28;19959;-87
2021/12/28 10:31:50;;;;;;;;;;;;;;;;;;5114490;28;20376;-86
2021/12/28 10:34:17;;;;;;;;;;;;;;;;;;5113008;28;19964;-88
2021/12/28 10:36:44;;;;;;;;;;;;;;;;;;5113873;28;19957;-86
2021/12/28 10:39:11;;;;;;;;;;;;;;;;;;5113637;28;19998;-86
2021/12/28 10:41:38;;;;;;;;;;;;;;;;;;5113421;28;19956;-86
2021/12/28 10:44:05;;;;;;;;;;;;;;;;;;5113360;28;20414;-86
2021/12/28 10:46:32;;;;;;;;;;;;;;;;;;5113335;28;20013;-83
2021/12/28 10:49:00;;;;;;;;;;;;;;;;;;5112531;28;19953;-83
2021/12/28 10:51:29;;;;;;;;;;;;;;;;;;5113261;28;20015;-88
2021/12/28 10:54:02;;;;;;;;;;;;;;;;;;5113741;28;19988;-86
2021/12/28 10:56:29;;;;;;;;;;;;;;;;;;5114509;28;20007;-86
2021/12/28 10:58:56;;;;;;;;;;;;;;;;;;5117481;28;20006;-88
2021/12/28 11:01:23;;;;;;;;;;;;;;;;;;5116475;28;20145;-87
2021/12/28 11:03:50;;;;;;;;;;;;;;;;;;5112699;28;20038;-87
2021/12/28 11:06:17;;;;;;;;;;;;;;;;;;5116880;28;20052;-86
2021/12/28 11:08:44;;;;;;;;;;;;;;;;;;5116836;27;20008;-86
2021/12/28 11:11:11;;;;;;;;;;;;;;;;;;5117848;28;19962;-87
2021/12/28 11:13:38;;;;;;;;;;;;;;;;;;5117160;28;20067;-87
2021/12/28 11:16:05;;;;;;;;;;;;;;;;;;5116875;28;20496;-87
2021/12/28 11:18:33;;;;;;;;;;;;;;;;;;5116871;28;20044;-90
2021/12/28 11:21:01;;;;;;;;;;;;;;;;;;5116512;28;19961;-86
2021/12/28 11:23:28;;;;;;;;;;;;;;;;;;5116768;28;20018;-87
2021/12/28 11:25:55;;;;;;;;;;;;;;;;;;5116788;28;20400;-86
2021/12/28 11:28:22;;;;;;;;;;;;;;;;;;5116277;28;20048;-87
2021/12/28 11:30:49;;;;;;;;;;;;;;;;;;5116773;28;20011;-88
2021/12/28 11:33:16;;;;;;;;;;;;;;;;;;5116334;28;20032;-87
2021/12/28 11:35:43;;;;;;;;;;;;;;;;;;5117077;28;20015;-86
2021/12/28 11:38:10;;;;;;;;;;;;;;;;;;5116344;28;20040;-86
2021/12/28 11:40:37;;;;;;;;;;;;;;;;;;5116140;28;20005;-85
2021/12/28 11:43:04;;;;;;;;;;;;;;;;;;5116042;28;20056;-87
2021/12/28 11:45:31;;;;;;;;;;;;;;;;;;5116152;28;19990;-86
2021/12/28 11:47:58;;;;;;;;;;;;;;;;;;5116029;28;20395;-86
2021/12/28 11:50:25;;;;;;;;;;;;;;;;;;5115884;28;20053;-87
2021/12/28 11:52:52;;;;;;;;;;;;;;;;;;5116006;28;19976;-86
2021/12/28 11:55:19;;;;;;;;;;;;;;;;;;5116249;28;19954;-86
2021/12/28 11:57:46;;;;;;;;;;;;;;;;;;5115903;28;20055;-86
2021/12/28 12:00:13;;;;;;;;;;;;;;;;;;5115526;28;20501;-85
2021/12/28 12:02:41;;;;;;;;;;;;;;;;;;5115593;28;19963;-85
2021/12/28 12:05:08;;;;;;;;;;;;;;;;;;5116012;28;19991;-86
2021/12/28 12:07:37;;;;;;;;;;;;;;;;;;5115576;28;20043;-85
2021/12/28 12:10:04;;;;;;;;;;;;;;;;;;5115135;28;20346;-84
2021/12/28 12:12:32;;;;;;;;;;;;;;;;;;5115053;28;19967;-84
2021/12/28 12:15:01;;;;;;;;;;;;;;;;;;5115767;28;19954;-84
2021/12/28 12:17:28;;;;;;;;;;;;;;;;;;5115353;28;20014;-85
2021/12/28 12:19:55;;;;;;;;;;;;;;;;;;5115358;28;19950;-85
2021/12/28 12:22:22;;;;;;;;;;;;;;;;;;5115614;28;20058;-86
2021/12/28 12:24:51;;;;;;;;;;;;;;;;;;5114949;28;21625;-85
2021/12/28 12:27:18;;;;;;;;;;;;;;;;;;5115085;28;20048;-87
2021/12/28 12:29:45;;;;;;;;;;;;;;;;;;5116058;28;20017;-85
2021/12/28 12:32:12;;;;;;;;;;;;;;;;;;5115347;28;19977;-84
2021/12/28 12:34:40;;;;;;;;;;;;;;;;;;5115691;28;20043;-85
2021/12/28 12:37:07;;;;;;;;;;;;;;;;;;5113905;28;20006;-85
2021/12/28 12:39:34;;;;;;;;;;;;;;;;;;5115605;28;20039;-85
2021/12/28 12:42:01;;;;;;;;;;;;;;;;;;5115343;28;20382;-85
2021/12/28 12:44:28;;;;;;;;;;;;;;;;;;5115638;28;20058;-85
2021/12/28 12:46:55;;;;;;;;;;;;;;;;;;5114469;28;20048;-84
2021/12/28 12:49:22;;;;;;;;;;;;;;;;;;5114461;28;19965;-85
2021/12/28 12:51:49;;;;;;;;;;;;;;;;;;5114279;28;20111;-84
2021/12/28 12:54:19;;;;;;;;;;;;;;;;;;5114065;28;20065;-84
2021/12/28 12:56:46;;;;;;;;;;;;;;;;;;5114508;28;20015;-83
2021/12/28 12:59:13;;;;;;;;;;;;;;;;;;5114150;28;20063;-85
2021/12/28 13:01:40;;;;;;;;;;;;;;;;;;5114664;28;20052;-84
2021/12/28 13:04:07;;;;;;;;;;;;;;;;;;5114801;28;19999;-84
2021/12/28 13:06:34;;;;;;;;;;;;;;;;;;5114731;28;20041;-84
2021/12/28 13:09:01;;;;;;;;;;;;;;;;;;5114917;28;20004;-84
2021/12/28 13:11:28;;;;;;;;;;;;;;;;;;5114456;28;19954;-83
2021/12/28 13:13:55;;;;;;;;;;;;;;;;;;5114507;28;20414;-83
2021/12/28 13:16:22;;;;;;;;;;;;;;;;;;5114392;28;20496;-84
2021/12/28 13:18:49;;;;;;;;;;;;;;;;;;5116810;27;20402;-83
2021/12/28 13:21:16;;;;;;;;;;;;;;;;;;5112447;28;20040;-85
2021/12/28 13:23:43;;;;;;;;;;;;;;;;;;5113050;28;19997;-85
2021/12/28 13:26:10;;;;;;;;;;;;;;;;;;5113404;28;20045;-84
2021/12/28 13:28:37;;;;;;;;;;;;;;;;;;5114215;28;20380;-84
2021/12/28 13:31:04;;;;;;;;;;;;;;;;;;5114250;28;20043;-85
2021/12/28 13:33:31;;;;;;;;;;;;;;;;;;5113930;28;20058;-84
2021/12/28 13:35:58;;;;;;;;;;;;;;;;;;5114056;28;20042;-84
2021/12/28 13:38:27;;;;;;;;;;;;;;;;;;5114070;28;20381;-83
2021/12/28 13:40:56;;;;;;;;;;;;;;;;;;5114278;28;19962;-84
2021/12/28 13:43:23;;;;;;;;;;;;;;;;;;5114096;28;20410;-85
2021/12/28 13:45:51;;;;;;;;;;;;;;;;;;5113937;28;19956;-84
2021/12/28 13:48:18;;;;;;;;;;;;;;;;;;5113985;28;19960;-87
2021/12/28 13:50:45;;;;;;;;;;;;;;;;;;5114165;28;20082;-86
2021/12/28 13:53:12;;;;;;;;;;;;;;;;;;5115075;28;20024;-86
2021/12/28 13:55:39;;;;;;;;;;;;;;;;;;5120493;28;19999;-88
2021/12/28 13:58:07;;;;;;;;;;;;;;;;;;5117219;28;20377;-90
2021/12/28 14:00:34;;;;;;;;;;;;;;;;;;5114192;28;20046;-89
2021/12/28 14:03:01;;;;;;;;;;;;;;;;;;5114179;28;20017;-88
2021/12/28 14:05:28;;;;;;;;;;;;;;;;;;5113995;28;20003;-88
2021/12/28 14:07:55;;;;;;;;;;;;;;;;;;5114114;28;20007;-85
2021/12/28 14:10:22;;;;;;;;;;;;;;;;;;5114091;28;20000;-87
2021/12/28 14:12:49;;;;;;;;;;;;;;;;;;5113304;28;20056;-87
2021/12/28 14:15:16;;;;;;;;;;;;;;;;;;5113506;28;19990;-87
2021/12/28 14:17:45;;;;;;;;;;;;;;;;;;5114140;28;20348;-88
2021/12/28 14:20:12;;;;;;;;;;;;;;;;;;5114883;28;20326;-90
2021/12/28 14:22:39;;;;;;;;;;;;;;;;;;5116040;28;20000;-89
2021/12/28 14:25:07;;;;;;;;;;;;;;;;;;5115958;28;20441;-86
2021/12/28 14:27:34;;;;;;;;;;;;;;;;;;5115160;28;20002;-89
2021/12/28 14:30:01;;;;;;;;;;;;;;;;;;5113884;28;20037;-85
2021/12/28 14:32:28;;;;;;;;;;;;;;;;;;5115637;28;19979;-85
2021/12/28 14:34:55;;;;;;;;;;;;;;;;;;5117653;28;20040;-84
2021/12/28 14:37:22;;;;;;;;;;;;;;;;;;5117389;28;20502;-86
2021/12/28 14:39:49;;;;;;;;;;;;;;;;;;5117347;28;20049;-87
2021/12/28 14:42:16;;;;;;;;;;;;;;;;;;5117286;28;20043;-85
2021/12/28 14:44:43;;;;;;;;;;;;;;;;;;5117308;28;20054;-86
2021/12/28 14:47:10;;;;;;;;;;;;;;;;;;5117406;28;20039;-85
2021/12/28 14:49:37;;;;;;;;;;;;;;;;;;5117102;28;20048;-85
2021/12/28 14:52:04;;;;;;;;;;;;;;;;;;5117440;28;19952;-85
2021/12/28 14:54:33;;;;;;;;;;;;;;;;;;5117379;28;20046;-86
2021/12/28 14:57:01;;;;;;;;;;;;;;;;;;5116852;28;19995;-86
2021/12/28 14:59:28;;;;;;;;;;;;;;;;;;5116891;28;20321;-85
2021/12/28 15:01:55;;;;;;;;;;;;;;;;;;5116820;28;20013;-85
2021/12/28 15:04:22;;;;;;;;;;;;;;;;;;5116844;28;20040;-84
2021/12/28 15:06:49;;;;;;;;;;;;;;;;;;5116841;28;20001;-83
2021/12/28 15:09:16;;;;;;;;;;;;;;;;;;5116843;28;20510;-85
2021/12/28 15:11:43;;;;;;;;;;;;;;;;;;5116726;28;20406;-84
2021/12/28 15:14:10;;;;;;;;;;;;;;;;;;5116094;28;19977;-85
2021/12/28 15:16:37;;;;;;;;;;;;;;;;;;5116854;28;19959;-85
2021/12/28 15:19:04;;;;;;;;;;;;;;;;;;5117286;28;19999;-85
2021/12/28 15:21:31;;;;;;;;;;;;;;;;;;5116680;28;19956;-84
2021/12/28 15:23:58;;;;;;;;;;;;;;;;;;5116243;28;20045;-85
2021/12/28 15:26:25;;;;;;;;;;;;;;;;;;5116520;28;20430;-85
2021/12/28 15:28:52;;;;;;;;;;;;;;;;;;5116404;28;20048;-85
2021/12/28 15:31:19;;;;;;;;;;;;;;;;;;5116083;28;19991;-84
2021/12/28 15:33:46;;;;;;;;;;;;;;;;;;5115491;28;20420;-85
2021/12/28 15:36:13;;;;;;;;;;;;;;;;;;5116322;28;20066;-85
2021/12/28 15:38:45;;;;;;;;;;;;;;;;;;5116222;28;20001;-85
2021/12/28 15:41:12;;;;;;;;;;;;;;;;;;5116079;28;19955;-84
2021/12/28 15:43:40;;;;;;;;;;;;;;;;;;5115194;28;19999;-85
2021/12/28 15:46:08;;;;;;;;;;;;;;;;;;5115788;28;19951;-86
2021/12/28 15:48:35;;;;;;;;;;;;;;;;;;5115937;28;20070;-86
2021/12/28 15:51:02;;;;;;;;;;;;;;;;;;5115765;28;19977;-85
2021/12/28 15:53:29;;;;;;;;;;;;;;;;;;5115868;28;20074;-84
2021/12/28 15:55:56;;;;;;;;;;;;;;;;;;5115754;28;20033;-85
2021/12/28 15:58:23;;;;;;;;;;;;;;;;;;5116015;28;19961;-86
2021/12/28 16:00:50;;;;;;;;;;;;;;;;;;5115264;28;20057;-84
2021/12/28 16:03:17;;;;;;;;;;;;;;;;;;5115781;28;20039;-87
2021/12/28 16:05:44;;;;;;;;;;;;;;;;;;5116087;28;20420;-86
2021/12/28 16:08:11;;;;;;;;;;;;;;;;;;5115600;28;20060;-86
2021/12/28 16:10:39;;;;;;;;;;;;;;;;;;5116372;27;20000;-87
2021/12/28 16:13:05;;;;;;;;;;;;;;;;;;5115317;28;20055;-84
2021/12/28 16:15:33;;;;;;;;;;;;;;;;;;5115618;28;20035;-87
2021/12/28 16:18:00;;;;;;;;;;;;;;;;;;5114480;27;20488;-86
2021/12/28 16:20:27;;;;;;;;;;;;;;;;;;5115110;28;20002;-87
2021/12/28 16:22:54;;;;;;;;;;;;;;;;;;5115768;28;20041;-87
2021/12/28 16:25:21;;;;;;;;;;;;;;;;;;5115494;28;20062;-85
2021/12/28 16:27:48;;;;;;;;;;;;;;;;;;5114697;28;20467;-85
2021/12/28 16:30:15;;;;;;;;;;;;;;;;;;5114497;28;19995;-86
2021/12/28 16:32:42;;;;;;;;;;;;;;;;;;5114995;28;19977;-86
2021/12/28 16:35:09;;;;;;;;;;;;;;;;;;5115093;27;20311;-86
2021/12/28 16:37:36;;;;;;;;;;;;;;;;;;5115238;28;20019;-87
2021/12/28 16:40:03;;;;;;;;;;;;;;;;;;5114876;28;20386;-86
2021/12/28 16:42:30;;;;;;;;;;;;;;;;;;5116690;28;19958;-87
2021/12/28 16:44:57;;;;;;;;;;;;;;;;;;5114970;28;19990;-85
2021/12/28 16:47:24;;;;;;;;;;;;;;;;;;5115033;28;20012;-86